Acworth, New Hampshire
Current Conditions -  °F | °C
As of 6:54 PM on Sunday 23 Nov 2014 (Local Time) from KVSF Reporting Station
Overcast Overcast  
Wind Chill: 40°   Ceiling: 5000
Heat Index: 40°   Visibility: 9mi
Dew Point: 37°   Wind: 0mph
Humidity: 89%   Direction: NA
Pressure: 30.1"   Gusts: NA
Location:  43.22°N, 72.29°W
Report Text: KVSF 232354Z AUTO 00000KT 9SM BKN050 OVC075 04/03 A3010 RMK AO2 SLP198 T00440028 10133 20039 53009
Loading
Personal Weather Stations






























Interactive Weather Map New forecast layout! Learn more

10-Day Weather Forecast

Advertisements
Track Severe Weather on mobile